Time;durP1;ratioP1;P1;durP2;ratioP2;P2;SDS_P1;SDS_P2;PMS_P1;PMS_P2;Temp;Humidity;BMP_temperature;BMP_pressure;BME280_temperature;BME280_humidity;BME280_pressure;Samples;Min_cycle;Max_cycle;Signal;HPM_P1;HPM_P2
2024/02/23 00:02:21;;;;;;;;;;;10.20;19.40;;;;;;5038013;28;19972;-87
2024/02/23 00:04:48;;;;;;;;;;;10.20;12.20;;;;;;5033250;28;20059;-86
2024/02/23 00:07:14;;;;;;;;;;;10.20;10.90;;;;;;5032161;28;20019;-85
2024/02/23 00:09:42;;;;;;;;;;;10.20;9.70;;;;;;5032215;28;20023;-86
2024/02/23 00:12:09;;;;;;;;;;;10.20;11.40;;;;;;5033487;28;19975;-86
2024/02/23 00:14:36;;;;;;;;;;;10.20;2.10;;;;;;5039670;28;19977;-86
2024/02/23 00:17:03;;;;;;;;;;;10.10;1.00;;;;;;5038010;28;19985;-87
2024/02/23 00:19:31;;;;;;;;;;;10.20;1.00;;;;;;5034088;28;19974;-87
2024/02/23 00:21:59;;;;;;;;;;;10.20;1.00;;;;;;5038379;28;19959;-86
2024/02/23 00:24:25;;;;;;;;;;;10.20;1.00;;;;;;5045585;28;19990;-83
2024/02/23 00:26:53;;;;;;;;;;;10.20;1.00;;;;;;5035465;28;19941;-85
2024/02/23 00:29:21;;;;;;;;;;;10.20;1.00;;;;;;5029849;28;19956;-87
2024/02/23 00:31:48;;;;;;;;;;;10.20;1.00;;;;;;5023543;28;19943;-86
2024/02/23 00:34:14;;;;;;;;;;;10.20;1.00;;;;;;5023589;28;19990;-86
2024/02/23 00:36:42;;;;;;;;;;;10.30;1.00;;;;;;5024590;28;19968;-86
2024/02/23 00:39:09;;;;;;;;;;;10.30;1.00;;;;;;5028062;28;19957;-86
2024/02/23 00:41:36;;;;;;;;;;;10.30;1.00;;;;;;5029220;28;19986;-86
2024/02/23 00:44:04;;;;;;;;;;;10.20;1.00;;;;;;5029888;28;19982;-86
2024/02/23 00:46:30;;;;;;;;;;;10.20;1.00;;;;;;5031473;28;19970;-85
2024/02/23 00:48:57;;;;;;;;;;;10.20;1.00;;;;;;5041287;28;19943;-86
2024/02/23 00:51:24;;;;;;;;;;;10.20;1.00;;;;;;5045283;28;19922;-85
2024/02/23 00:53:50;;;;;;;;;;;10.10;1.00;;;;;;5043935;28;19949;-87
2024/02/23 00:56:17;;;;;;;;;;;10.10;1.00;;;;;;5037912;28;19967;-87
2024/02/23 00:58:44;;;;;;;;;;;10.10;1.00;;;;;;5034923;28;19960;-86
2024/02/23 01:01:12;;;;;;;;;;;10.20;1.00;;;;;;5041788;28;19956;-86
2024/02/23 01:03:38;;;;;;;;;;;10.20;1.00;;;;;;5042894;28;19959;-87
2024/02/23 01:06:05;;;;;;;;;;;10.20;1.00;;;;;;5035640;28;19946;-87
2024/02/23 01:08:32;;;;;;;;;;;10.20;1.00;;;;;;5033100;28;20006;-88
2024/02/23 01:10:59;;;;;;;;;;;10.30;1.00;;;;;;5033332;28;19960;-88
2024/02/23 01:13:25;;;;;;;;;;;10.20;1.00;;;;;;5033490;28;19983;-86
2024/02/23 01:15:53;;;;;;;;;;;10.30;1.00;;;;;;5031959;28;19941;-86
2024/02/23 01:18:21;;;;;;;;;;;10.30;1.00;;;;;;5037416;28;19947;-84
2024/02/23 01:20:48;;;;;;;;;;;10.40;1.00;;;;;;5041884;28;19945;-84
2024/02/23 01:23:15;;;;;;;;;;;10.40;1.00;;;;;;5036134;28;19928;-87
2024/02/23 01:25:41;;;;;;;;;;;10.40;1.00;;;;;;5032257;28;19961;-87
2024/02/23 01:28:08;;;;;;;;;;;10.40;99.90;;;;;;5039917;28;19955;-85
2024/02/23 01:30:35;;;;;;;;;;;10.50;99.90;;;;;;5032621;28;19947;-85
2024/02/23 01:33:01;;;;;;;;;;;10.60;99.90;;;;;;5027296;28;20071;-85
2024/02/23 01:35:30;;;;;;;;;;;10.60;99.90;;;;;;5027337;28;20312;-86
2024/02/23 01:37:56;;;;;;;;;;;10.60;99.90;;;;;;5027634;28;20357;-85
2024/02/23 01:40:23;;;;;;;;;;;10.60;99.90;;;;;;5034287;28;20002;-83
2024/02/23 01:42:50;;;;;;;;;;;10.70;15.00;;;;;;5029047;28;19976;-85
2024/02/23 01:45:16;;;;;;;;;;;10.80;1.00;;;;;;5026889;28;19921;-85
2024/02/23 01:47:43;;;;;;;;;;;10.80;1.00;;;;;;5030467;28;19941;-83
2024/02/23 01:50:12;;;;;;;;;;;10.80;1.00;;;;;;5039749;28;19937;-84
2024/02/23 01:52:40;;;;;;;;;;;10.80;1.00;;;;;;5027810;28;19922;-86
2024/02/23 01:55:07;;;;;;;;;;;10.80;1.00;;;;;;5027970;28;19921;-85
2024/02/23 01:57:34;;;;;;;;;;;10.90;1.00;;;;;;5028495;28;19976;-86
2024/02/23 02:00:01;;;;;;;;;;;11.00;99.90;;;;;;5028508;28;20010;-86
2024/02/23 02:02:28;;;;;;;;;;;10.90;99.90;;;;;;5028251;28;19943;-86
2024/02/23 02:04:54;;;;;;;;;;;11.00;27.70;;;;;;5029067;28;19943;-86
2024/02/23 02:07:22;;;;;;;;;;;11.00;1.00;;;;;;5029063;28;19989;-86
2024/02/23 02:09:50;;;;;;;;;;;11.10;99.90;;;;;;5029093;28;19972;-85
2024/02/23 02:12:26;;;;;;;;;;;11.10;99.90;;;;;;5032928;28;19954;-86
2024/02/23 02:14:54;;;;;;;;;;;11.00;81.30;;;;;;5035376;28;19943;-87
2024/02/23 02:17:20;;;;;;;;;;;11.00;1.00;;;;;;5031143;28;19939;-87
2024/02/23 02:19:47;;;;;;;;;;;10.90;99.90;;;;;;5034058;28;19983;-86
2024/02/23 02:22:14;;;;;;;;;;;10.90;99.90;;;;;;5035088;28;19942;-85
2024/02/23 02:24:43;;;;;;;;;;;10.80;99.90;;;;;;5037702;28;19932;-85
2024/02/23 02:27:11;;;;;;;;;;;10.80;99.90;;;;;;5037611;28;19945;-85
2024/02/23 02:29:38;;;;;;;;;;;10.70;99.90;;;;;;5036451;28;19993;-87
2024/02/23 02:32:05;;;;;;;;;;;10.70;26.40;;;;;;5034448;28;19925;-86
2024/02/23 02:34:32;;;;;;;;;;;10.70;1.00;;;;;;5038270;28;19951;-84
2024/02/23 02:36:58;;;;;;;;;;;10.70;1.00;;;;;;5038652;28;19928;-85
2024/02/23 02:39:25;;;;;;;;;;;10.60;1.00;;;;;;5035828;28;19921;-87
2024/02/23 02:41:52;;;;;;;;;;;10.60;1.00;;;;;;5031380;28;19963;-86
2024/02/23 02:44:20;;;;;;;;;;;10.50;1.00;;;;;;5029149;28;19940;-86
2024/02/23 02:46:47;;;;;;;;;;;10.50;1.00;;;;;;5030010;28;20002;-88
2024/02/23 02:49:13;;;;;;;;;;;10.50;1.00;;;;;;5030143;28;19922;-87
2024/02/23 02:51:40;;;;;;;;;;;10.40;1.00;;;;;;5036655;28;19939;-88
2024/02/23 02:54:07;;;;;;;;;;;10.40;1.00;;;;;;5028711;28;19986;-85
2024/02/23 02:56:33;;;;;;;;;;;10.30;1.00;;;;;;5028829;28;19980;-86
2024/02/23 02:59:00;;;;;;;;;;;10.30;1.00;;;;;;5028780;28;19953;-86
2024/02/23 03:01:28;;;;;;;;;;;10.30;1.00;;;;;;5037356;28;19905;-86
2024/02/23 03:03:55;;;;;;;;;;;10.30;1.00;;;;;;5038211;28;19951;-87
2024/02/23 03:06:21;;;;;;;;;;;10.20;1.00;;;;;;5038737;28;19965;-84
2024/02/23 03:08:48;;;;;;;;;;;10.20;1.00;;;;;;5034531;28;20002;-86
2024/02/23 03:11:15;;;;;;;;;;;10.20;1.00;;;;;;5026694;28;19965;-85
2024/02/23 03:13:41;;;;;;;;;;;10.10;1.00;;;;;;5032431;28;19952;-87
2024/02/23 03:16:15;;;;;;;;;;;10.10;1.00;;;;;;5035053;28;19967;-86
2024/02/23 03:18:43;;;;;;;;;;;10.10;1.00;;;;;;5023301;28;20012;-86
2024/02/23 03:21:10;;;;;;;;;;;10.10;1.00;;;;;;5030208;28;20295;-86
2024/02/23 03:23:38;;;;;;;;;;;10.00;1.00;;;;;;5038578;28;20030;-83
2024/02/23 03:26:04;;;;;;;;;;;10.00;1.00;;;;;;5037435;28;19963;-85
2024/02/23 03:28:32;;;;;;;;;;;10.00;1.00;;;;;;5032346;28;20191;-86
2024/02/23 03:30:58;;;;;;;;;;;10.00;1.00;;;;;;5026913;28;19946;-86
2024/02/23 03:33:25;;;;;;;;;;;10.00;1.00;;;;;;5023643;28;19987;-85
2024/02/23 03:35:53;;;;;;;;;;;9.90;1.00;;;;;;5024576;28;20006;-86
2024/02/23 03:38:20;;;;;;;;;;;9.90;1.00;;;;;;5030647;28;20003;-86
2024/02/23 03:40:46;;;;;;;;;;;9.90;1.00;;;;;;5033857;28;20283;-86
2024/02/23 03:43:13;;;;;;;;;;;9.80;1.00;;;;;;5029876;28;19953;-87
2024/02/23 03:45:40;;;;;;;;;;;9.80;1.00;;;;;;5029898;28;20015;-86
2024/02/23 03:48:07;;;;;;;;;;;9.80;1.00;;;;;;5033513;28;19998;-86
2024/02/23 03:50:33;;;;;;;;;;;9.70;1.00;;;;;;5029379;28;19984;-86
2024/02/23 03:53:03;;;;;;;;;;;9.60;1.00;;;;;;5028240;28;19929;-86
2024/02/23 03:55:31;;;;;;;;;;;9.60;1.00;;;;;;5027181;28;19921;-87
2024/02/23 03:57:57;;;;;;;;;;;9.60;1.00;;;;;;5027509;28;19940;-86
2024/02/23 04:00:24;;;;;;;;;;;9.60;1.00;;;;;;5025458;28;19967;-86
2024/02/23 04:02:52;;;;;;;;;;;9.60;1.00;;;;;;5031891;28;19940;-86
2024/02/23 04:05:19;;;;;;;;;;;9.60;1.00;;;;;;5022767;28;19947;-87
2024/02/23 04:07:45;;;;;;;;;;;9.60;1.00;;;;;;5023540;28;19945;-87
2024/02/23 04:10:16;;;;;;;;;;;9.50;1.00;;;;;;5022623;28;20033;-87
2024/02/23 04:12:42;;;;;;;;;;;9.50;1.00;;;;;;5025187;28;20305;-86
2024/02/23 04:15:09;;;;;;;;;;;9.50;1.00;;;;;;5037793;28;19944;-84
2024/02/23 04:17:36;;;;;;;;;;;9.50;1.00;;;;;;5039235;28;19917;-83
2024/02/23 04:20:07;;;;;;;;;;;9.40;1.00;;;;;;5039123;28;19967;-85
2024/02/23 04:22:33;;;;;;;;;;;9.40;1.00;;;;;;5035569;28;19995;-87
2024/02/23 04:25:00;;;;;;;;;;;9.40;1.00;;;;;;5034377;28;19939;-86
2024/02/23 04:27:28;;;;;;;;;;;9.40;1.00;;;;;;5025114;28;20025;-88
2024/02/23 04:29:55;;;;;;;;;;;9.30;1.00;;;;;;5027662;28;19972;-86
2024/02/23 04:32:21;;;;;;;;;;;9.40;1.00;;;;;;5026889;28;19917;-86
2024/02/23 04:34:48;;;;;;;;;;;9.30;1.00;;;;;;5031598;28;19979;-86
2024/02/23 04:37:15;;;;;;;;;;;9.30;1.00;;;;;;5036084;28;19965;-87
2024/02/23 04:39:44;;;;;;;;;;;9.40;1.00;;;;;;5027647;28;19969;-87
2024/02/23 04:42:11;;;;;;;;;;;9.40;1.00;;;;;;5019370;28;20495;-87
2024/02/23 04:44:39;;;;;;;;;;;9.30;1.00;;;;;;5021424;28;19939;-86
2024/02/23 04:47:06;;;;;;;;;;;9.30;1.00;;;;;;5023822;28;19961;-86
2024/02/23 04:49:32;;;;;;;;;;;9.30;1.00;;;;;;5029102;28;19917;-84
2024/02/23 04:51:59;;;;;;;;;;;9.30;1.00;;;;;;5042529;28;19948;-83
2024/02/23 04:54:26;;;;;;;;;;;9.30;1.00;;;;;;5038382;28;19975;-87
2024/02/23 04:56:52;;;;;;;;;;;9.30;1.00;;;;;;5028299;28;20017;-86
2024/02/23 04:59:19;;;;;;;;;;;9.30;1.00;;;;;;5026474;28;20398;-87
2024/02/23 05:01:47;;;;;;;;;;;9.30;1.00;;;;;;5030023;28;20051;-88
2024/02/23 05:04:14;;;;;;;;;;;9.30;1.00;;;;;;5028848;28;19965;-84
2024/02/23 05:06:42;;;;;;;;;;;9.20;1.00;;;;;;5028082;28;19929;-87
2024/02/23 05:09:09;;;;;;;;;;;9.20;1.00;;;;;;5027494;28;20028;-87
2024/02/23 05:11:35;;;;;;;;;;;9.20;1.00;;;;;;5039953;28;19925;-84
2024/02/23 05:14:02;;;;;;;;;;;9.20;1.00;;;;;;5041887;28;19977;-85
2024/02/23 05:16:29;;;;;;;;;;;9.20;1.00;;;;;;5027358;28;20355;-86
2024/02/23 05:18:57;;;;;;;;;;;9.20;1.00;;;;;;5025877;28;19989;-85
2024/02/23 05:21:23;;;;;;;;;;;9.20;1.00;;;;;;5026128;28;19955;-86
2024/02/23 05:23:50;;;;;;;;;;;9.20;1.00;;;;;;5026472;28;19944;-87
2024/02/23 05:26:17;;;;;;;;;;;9.10;1.00;;;;;;5026158;28;19948;-87
2024/02/23 05:28:44;;;;;;;;;;;9.10;1.00;;;;;;5026065;28;19988;-86
2024/02/23 05:31:10;;;;;;;;;;;9.00;1.00;;;;;;5037251;28;19941;-84
2024/02/23 05:33:38;;;;;;;;;;;8.90;1.00;;;;;;5032787;28;20394;-87
2024/02/23 05:36:06;;;;;;;;;;;8.80;1.00;;;;;;5025980;28;20387;-87
2024/02/23 05:38:33;;;;;;;;;;;8.70;1.00;;;;;;5025107;28;19958;-88
2024/02/23 05:41:00;;;;;;;;;;;8.60;1.00;;;;;;5025594;28;20015;-87
2024/02/23 05:43:27;;;;;;;;;;;8.60;1.00;;;;;;5025686;28;19935;-86
2024/02/23 05:45:57;;;;;;;;;;;8.50;1.00;;;;;;5031746;28;19921;-87
2024/02/23 05:48:23;;;;;;;;;;;8.40;1.00;;;;;;5036940;28;19979;-87
2024/02/23 05:50:50;;;;;;;;;;;8.40;1.00;;;;;;5025026;28;19964;-86
2024/02/23 05:53:18;;;;;;;;;;;8.30;1.00;;;;;;5023049;28;20042;-86
2024/02/23 05:55:45;;;;;;;;;;;8.40;1.00;;;;;;5023470;28;20058;-88
2024/02/23 05:58:13;;;;;;;;;;;8.30;1.00;;;;;;5025807;28;19971;-86
2024/02/23 06:00:40;;;;;;;;;;;8.30;1.00;;;;;;5030559;28;19928;-85
2024/02/23 06:03:06;;;;;;;;;;;8.30;1.00;;;;;;5040172;28;19941;-87
2024/02/23 06:05:33;;;;;;;;;;;8.20;1.00;;;;;;5031128;28;20409;-87
2024/02/23 06:08:01;;;;;;;;;;;8.30;1.00;;;;;;5026326;28;19956;-85
2024/02/23 06:10:29;;;;;;;;;;;8.20;1.00;;;;;;5030370;28;19940;-86
2024/02/23 06:12:56;;;;;;;;;;;8.20;1.00;;;;;;5025893;28;19941;-87
2024/02/23 06:15:22;;;;;;;;;;;8.20;1.00;;;;;;5025229;28;19946;-87
2024/02/23 06:17:49;;;;;;;;;;;8.10;1.00;;;;;;5027149;28;19941;-85
2024/02/23 06:20:16;;;;;;;;;;;8.10;1.00;;;;;;5040445;28;19936;-85
2024/02/23 06:22:45;;;;;;;;;;;8.10;1.00;;;;;;5040082;28;19954;-85
2024/02/23 06:25:12;;;;;;;;;;;8.10;1.00;;;;;;5030841;28;19925;-87
2024/02/23 06:27:40;;;;;;;;;;;8.00;1.00;;;;;;5033283;28;19962;-87
2024/02/23 06:30:08;;;;;;;;;;;8.00;1.00;;;;;;5033392;28;19921;-85
2024/02/23 06:32:34;;;;;;;;;;;8.00;1.00;;;;;;5038661;28;19942;-87
2024/02/23 06:35:02;;;;;;;;;;;8.00;1.00;;;;;;5040116;28;19982;-84
2024/02/23 06:37:29;;;;;;;;;;;7.90;1.00;;;;;;5038101;28;19940;-85
2024/02/23 06:39:56;;;;;;;;;;;7.90;1.00;;;;;;5040275;28;19942;-84
2024/02/23 06:42:22;;;;;;;;;;;7.90;1.00;;;;;;5037447;28;19991;-85
2024/02/23 06:44:50;;;;;;;;;;;7.90;1.00;;;;;;5034626;28;19941;-86
2024/02/23 06:47:19;;;;;;;;;;;7.90;1.00;;;;;;5026102;28;19979;-85
2024/02/23 06:49:47;;;;;;;;;;;8.00;1.00;;;;;;5030100;28;19921;-84
2024/02/23 06:52:13;;;;;;;;;;;7.90;1.00;;;;;;5037742;28;19921;-84
2024/02/23 06:54:40;;;;;;;;;;;7.90;1.00;;;;;;5037676;28;19932;-84
2024/02/23 06:57:07;;;;;;;;;;;7.90;1.00;;;;;;5035019;28;19958;-86
2024/02/23 06:59:34;;;;;;;;;;;7.90;1.00;;;;;;5026546;28;20028;-86
2024/02/23 07:02:04;;;;;;;;;;;7.90;1.00;;;;;;5028461;28;20043;-87
2024/02/23 07:04:30;;;;;;;;;;;7.90;1.00;;;;;;5038887;28;19995;-86
2024/02/23 07:06:57;;;;;;;;;;;7.90;1.00;;;;;;5030984;28;19939;-86
2024/02/23 07:09:24;;;;;;;;;;;8.00;1.00;;;;;;5022128;28;19972;-85
2024/02/23 07:11:50;;;;;;;;;;;8.00;1.00;;;;;;5022422;28;19939;-87
2024/02/23 07:14:18;;;;;;;;;;;8.00;1.00;;;;;;5023181;28;20001;-86
2024/02/23 07:16:44;;;;;;;;;;;8.00;1.00;;;;;;5028129;28;20030;-86
2024/02/23 07:19:12;;;;;;;;;;;8.00;1.00;;;;;;5033101;28;19921;-86
2024/02/23 07:21:39;;;;;;;;;;;8.00;1.00;;;;;;5024265;28;19921;-86
2024/02/23 07:24:06;;;;;;;;;;;8.00;1.00;;;;;;5023949;28;20074;-86
2024/02/23 07:26:33;;;;;;;;;;;8.00;1.00;;;;;;5031870;28;19963;-84
2024/02/23 07:28:59;;;;;;;;;;;8.10;1.00;;;;;;5033402;28;19922;-87
2024/02/23 07:31:26;;;;;;;;;;;8.10;1.00;;;;;;5023578;28;19960;-87
2024/02/23 07:33:53;;;;;;;;;;;8.10;1.00;;;;;;5022868;28;19973;-86
2024/02/23 07:36:21;;;;;;;;;;;8.10;1.00;;;;;;5022434;28;20027;-87
2024/02/23 07:38:48;;;;;;;;;;;8.20;1.00;;;;;;5032691;28;19979;-85
2024/02/23 07:41:17;;;;;;;;;;;8.20;1.00;;;;;;5023510;28;19957;-85
2024/02/23 07:43:44;;;;;;;;;;;8.20;1.00;;;;;;5022367;28;19976;-86
2024/02/23 07:46:11;;;;;;;;;;;8.20;1.00;;;;;;5024800;28;19993;-85
2024/02/23 07:48:37;;;;;;;;;;;8.10;1.00;;;;;;5025098;28;19962;-87
2024/02/23 07:51:05;;;;;;;;;;;8.10;1.00;;;;;;5021245;28;20031;-85
2024/02/23 07:53:33;;;;;;;;;;;8.10;1.00;;;;;;5021270;28;19936;-87
2024/02/23 07:56:02;;;;;;;;;;;8.10;1.00;;;;;;5021571;28;20381;-87
2024/02/23 07:58:29;;;;;;;;;;;8.20;1.00;;;;;;5023300;28;19967;-87
2024/02/23 08:00:55;;;;;;;;;;;8.20;1.00;;;;;;5037544;28;19909;-88
2024/02/23 08:03:22;;;;;;;;;;;8.20;1.00;;;;;;5034469;28;19948;-87
2024/02/23 08:05:49;;;;;;;;;;;8.20;1.00;;;;;;5027629;28;19959;-86
2024/02/23 08:08:16;;;;;;;;;;;8.20;1.00;;;;;;5038263;28;19950;-85
2024/02/23 08:10:44;;;;;;;;;;;8.30;1.00;;;;;;5037733;28;19971;-85
2024/02/23 08:13:11;;;;;;;;;;;8.30;1.00;;;;;;5032968;28;19943;-87
2024/02/23 08:15:38;;;;;;;;;;;8.40;1.00;;;;;;5023454;28;20021;-86
2024/02/23 08:18:05;;;;;;;;;;;8.50;1.00;;;;;;5023578;28;19982;-87
2024/02/23 08:20:31;;;;;;;;;;;8.70;1.00;;;;;;5031904;28;19964;-84
2024/02/23 08:22:58;;;;;;;;;;;8.70;1.00;;;;;;5043061;28;19979;-83
2024/02/23 08:25:28;;;;;;;;;;;8.60;1.00;;;;;;5037029;28;19947;-87
2024/02/23 08:27:55;;;;;;;;;;;8.60;1.00;;;;;;5037894;28;19961;-86
2024/02/23 08:30:22;;;;;;;;;;;8.50;1.00;;;;;;5040911;28;19953;-87
2024/02/23 08:32:48;;;;;;;;;;;8.70;1.00;;;;;;5037850;28;19961;-87
2024/02/23 08:35:15;;;;;;;;;;;8.70;1.00;;;;;;5027743;28;19968;-86
2024/02/23 08:37:42;;;;;;;;;;;8.50;1.00;;;;;;5025557;28;20007;-88
2024/02/23 08:40:10;;;;;;;;;;;8.50;1.00;;;;;;5025402;28;19983;-87
2024/02/23 08:42:36;;;;;;;;;;;8.60;1.00;;;;;;5025793;28;19971;-87
2024/02/23 08:45:05;;;;;;;;;;;8.60;1.00;;;;;;5030630;28;19939;-86
2024/02/23 08:47:35;;;;;;;;;;;8.60;1.00;;;;;;5033775;28;20374;-87
2024/02/23 08:50:02;;;;;;;;;;;8.60;1.00;;;;;;5040351;28;19948;-86
2024/02/23 08:52:28;;;;;;;;;;;8.60;1.00;;;;;;5042468;28;19931;-85
2024/02/23 08:54:55;;;;;;;;;;;8.60;1.00;;;;;;5039677;28;19941;-86
2024/02/23 08:57:23;;;;;;;;;;;8.70;1.00;;;;;;5031601;28;19940;-86
2024/02/23 08:59:49;;;;;;;;;;;8.70;1.00;;;;;;5036413;28;19989;-87
2024/02/23 09:02:18;;;;;;;;;;;8.70;1.00;;;;;;5039628;28;19978;-85
2024/02/23 09:04:45;;;;;;;;;;;8.70;1.00;;;;;;5038321;28;19950;-87
2024/02/23 09:07:12;;;;;;;;;;;8.90;1.00;;;;;;5037605;28;19959;-87
2024/02/23 09:09:39;;;;;;;;;;;9.00;1.00;;;;;;5032738;28;19956;-87
2024/02/23 09:12:06;;;;;;;;;;;9.10;1.00;;;;;;5030757;28;19947;-87
2024/02/23 09:14:37;;;;;;;;;;;9.00;1.00;;;;;;5027566;28;19946;-86
2024/02/23 09:17:04;;;;;;;;;;;9.10;1.00;;;;;;5036019;28;20229;-87
2024/02/23 09:19:32;;;;;;;;;;;9.00;1.00;;;;;;5027106;28;19955;-85
2024/02/23 09:22:00;;;;;;;;;;;9.00;1.00;;;;;;5025814;28;20392;-87
2024/02/23 09:24:26;;;;;;;;;;;9.20;1.00;;;;;;5026276;28;19921;-87
2024/02/23 09:26:53;;;;;;;;;;;9.40;1.00;;;;;;5026652;28;19982;-87
2024/02/23 09:29:21;;;;;;;;;;;9.40;1.00;;;;;;5027936;28;20026;-87
2024/02/23 09:31:47;;;;;;;;;;;9.40;1.00;;;;;;5026727;28;19925;-86
2024/02/23 09:34:14;;;;;;;;;;;9.40;1.00;;;;;;5027126;28;19964;-85
2024/02/23 09:36:42;;;;;;;;;;;9.40;1.00;;;;;;5031001;28;19921;-85
2024/02/23 09:39:09;;;;;;;;;;;9.30;1.00;;;;;;5031533;28;19967;-86
2024/02/23 09:41:39;;;;;;;;;;;9.30;1.00;;;;;;5029246;28;19955;-88
2024/02/23 09:44:07;;;;;;;;;;;9.20;1.00;;;;;;5033453;28;19922;-87
2024/02/23 09:46:35;;;;;;;;;;;9.00;1.00;;;;;;5030651;28;20095;-87
2024/02/23 09:49:03;;;;;;;;;;;9.10;1.00;;;;;;5030935;28;19944;-88
2024/02/23 09:51:30;;;;;;;;;;;9.10;1.00;;;;;;5027709;28;19935;-87
2024/02/23 09:53:59;;;;;;;;;;;9.10;1.00;;;;;;5027558;28;19956;-86
2024/02/23 09:56:28;;;;;;;;;;;9.20;1.00;;;;;;5031878;28;19942;-84
2024/02/23 10:24:25;;;;;;;;;;;9.10;1.00;;;;;;4921920;29;19951;-89
2024/02/23 10:43:07;;;;;;;;;;;9.60;1.00;;;;;;4819923;29;20390;-88
2024/02/23 10:55:45;;;;;;;;;;;;;;;;;;;;;
2024/02/23 11:05:13;;;;;;;;;;;9.60;1.00;;;;;;4903962;29;19952;-90
2024/02/23 11:20:31;;;;;;;;;;;9.90;1.00;;;;;;4879179;29;19948;-88
2024/02/23 11:46:57;;;;;;;;;;;10.00;1.00;;;;;;4929135;29;20520;-88
2024/02/23 11:53:35;;;;;;;;;;;;;;;;;;;;;
2024/02/23 12:12:18;;;;;;;;;;;9.90;99.90;;;;;;4859692;29;20017;-88
2024/02/23 12:52:11;;;;;;;;;;;10.20;99.90;;;;;;4777789;30;19925;-88
2024/02/23 12:58:19;;;;;;;;;;;10.10;99.90;;;;;;4789566;29;19929;-88
2024/02/23 13:01:39;;;;;;;;;;;10.10;99.90;;;;;;4816998;29;19925;-89
2024/02/23 13:07:59;;;;;;;;;;;10.20;99.90;;;;;;4827589;29;19925;-88
2024/02/23 14:39:31;;;;;;;;;;;9.40;99.90;;;;;;5083501;23;19925;-85
2024/02/23 14:41:58;;;;;;;;;;;9.40;99.90;;;;;;5049012;28;19921;-86
2024/02/23 14:44:26;;;;;;;;;;;9.40;99.90;;;;;;5056917;28;19967;-85
2024/02/23 14:46:52;;;;;;;;;;;9.40;99.90;;;;;;5056326;28;19921;-87
2024/02/23 14:49:19;;;;;;;;;;;9.50;99.90;;;;;;5051189;28;19998;-87
2024/02/23 14:51:48;;;;;;;;;;;9.40;99.90;;;;;;5058292;28;19909;-86
2024/02/23 14:54:15;;;;;;;;;;;9.50;99.90;;;;;;5059630;28;19963;-87
2024/02/23 14:56:43;;;;;;;;;;;9.50;99.90;;;;;;5051290;28;19921;-87
2024/02/23 14:59:10;;;;;;;;;;;9.40;99.90;;;;;;5051778;28;20034;-85
2024/02/23 15:01:37;;;;;;;;;;;9.40;99.90;;;;;;5045087;28;19921;-88
2024/02/23 15:04:04;;;;;;;;;;;9.40;99.90;;;;;;5045701;28;19955;-85
2024/02/23 15:06:31;;;;;;;;;;;9.30;99.90;;;;;;5046462;28;20039;-88
2024/02/23 15:08:58;;;;;;;;;;;9.30;99.90;;;;;;5047295;28;19960;-87
2024/02/23 15:11:25;;;;;;;;;;;9.30;99.90;;;;;;5046808;28;20033;-87
2024/02/23 15:13:57;;;;;;;;;;;9.30;99.90;;;;;;5047031;28;19948;-86
2024/02/23 15:16:24;;;;;;;;;;;9.30;99.90;;;;;;5047115;28;19921;-86
2024/02/23 15:18:51;;;;;;;;;;;9.30;99.90;;;;;;5054377;28;19940;-85
2024/02/23 15:21:18;;;;;;;;;;;9.30;99.90;;;;;;5056029;28;19925;-85
2024/02/23 15:23:45;;;;;;;;;;;9.40;99.90;;;;;;5048618;28;19973;-86
2024/02/23 15:26:12;;;;;;;;;;;9.30;99.90;;;;;;5044748;28;19979;-87
2024/02/23 15:28:38;;;;;;;;;;;9.30;99.90;;;;;;5051535;28;19962;-85
2024/02/23 15:31:07;;;;;;;;;;;9.30;99.90;;;;;;5055079;28;19952;-85
2024/02/23 15:33:33;;;;;;;;;;;9.20;99.90;;;;;;5047539;28;19946;-86
2024/02/23 15:36:04;;;;;;;;;;;9.20;99.90;;;;;;5044307;28;19931;-86
2024/02/23 15:38:31;;;;;;;;;;;9.10;1.00;;;;;;5048099;28;20051;-87
2024/02/23 15:40:57;;;;;;;;;;;9.10;99.90;;;;;;5055286;28;20454;-86
2024/02/23 15:43:24;;;;;;;;;;;9.10;1.00;;;;;;5054848;28;19956;-84
2024/02/23 15:45:51;;;;;;;;;;;9.10;1.00;;;;;;5057295;28;19950;-87
2024/02/23 15:48:19;;;;;;;;;;;9.10;1.00;;;;;;5050206;28;20443;-87
2024/02/23 15:50:46;;;;;;;;;;;9.10;1.00;;;;;;5045399;28;19957;-87
2024/02/23 15:53:13;;;;;;;;;;;9.10;1.00;;;;;;5049941;28;19946;-86
2024/02/23 15:55:39;;;;;;;;;;;9.10;1.00;;;;;;5046385;28;19992;-86
2024/02/23 15:58:08;;;;;;;;;;;9.00;1.00;;;;;;5043561;28;20010;-87
2024/02/23 16:00:35;;;;;;;;;;;9.10;1.00;;;;;;5046842;28;19974;-88
2024/02/23 16:03:02;;;;;;;;;;;9.00;1.00;;;;;;5045156;28;20014;-87
2024/02/23 16:05:30;;;;;;;;;;;9.00;1.00;;;;;;5054022;28;19929;-86
2024/02/23 16:07:56;;;;;;;;;;;8.90;1.00;;;;;;5046682;28;19960;-86
2024/02/23 16:10:23;;;;;;;;;;;8.90;1.00;;;;;;5046626;28;19939;-87
2024/02/23 16:12:50;;;;;;;;;;;8.80;1.00;;;;;;5044851;28;19946;-88
2024/02/23 16:15:17;;;;;;;;;;;8.80;1.00;;;;;;5046550;28;20303;-87
2024/02/23 16:17:44;;;;;;;;;;;8.80;1.00;;;;;;5044114;28;19959;-86
2024/02/23 16:20:11;;;;;;;;;;;8.80;1.00;;;;;;5043606;28;20426;-87
2024/02/23 16:22:39;;;;;;;;;;;8.70;1.00;;;;;;5044590;28;19941;-87
2024/02/23 16:25:07;;;;;;;;;;;8.70;1.00;;;;;;5044568;28;19952;-85
2024/02/23 16:27:33;;;;;;;;;;;8.60;1.00;;;;;;5044507;28;20036;-88
2024/02/23 16:30:00;;;;;;;;;;;8.60;1.00;;;;;;5044619;28;19975;-86
2024/02/23 16:32:27;;;;;;;;;;;8.60;1.00;;;;;;5049525;28;19978;-85
2024/02/23 16:34:59;;;;;;;;;;;8.50;1.00;;;;;;5048896;28;19996;-87
2024/02/23 16:37:27;;;;;;;;;;;8.60;1.00;;;;;;5047816;28;20037;-86
2024/02/23 16:39:55;;;;;;;;;;;8.60;1.00;;;;;;5058555;28;19928;-87
2024/02/23 16:42:23;;;;;;;;;;;8.50;1.00;;;;;;5058176;28;19999;-86
2024/02/23 16:44:50;;;;;;;;;;;8.50;1.00;;;;;;5055962;28;19921;-84
2024/02/23 16:47:17;;;;;;;;;;;8.50;1.00;;;;;;5058772;28;19941;-85
2024/02/23 16:49:44;;;;;;;;;;;8.40;1.00;;;;;;5060048;28;19964;-86
2024/02/23 16:52:11;;;;;;;;;;;8.40;1.00;;;;;;5055451;28;19979;-87
2024/02/23 16:54:37;;;;;;;;;;;8.40;1.00;;;;;;5056860;28;19921;-85
2024/02/23 16:57:06;;;;;;;;;;;8.40;1.00;;;;;;5058342;28;19959;-87
2024/02/23 16:59:33;;;;;;;;;;;8.40;1.00;;;;;;5057178;28;20027;-87
2024/02/23 17:02:02;;;;;;;;;;;8.40;1.00;;;;;;5054553;28;19936;-87
2024/02/23 17:04:35;;;;;;;;;;;8.40;1.00;;;;;;5052272;28;19997;-86
2024/02/23 17:07:02;;;;;;;;;;;8.40;1.00;;;;;;5048046;28;19971;-88
2024/02/23 17:09:29;;;;;;;;;;;8.40;1.00;;;;;;5049581;28;19964;-86
2024/02/23 17:11:58;;;;;;;;;;;8.30;1.00;;;;;;5049114;28;19940;-87
2024/02/23 17:14:26;;;;;;;;;;;8.30;1.00;;;;;;5049122;28;20373;-87
2024/02/23 17:16:53;;;;;;;;;;;8.30;1.00;;;;;;5045801;28;19950;-88
2024/02/23 17:19:20;;;;;;;;;;;8.20;1.00;;;;;;5044055;28;19955;-87
2024/02/23 17:21:47;;;;;;;;;;;8.20;1.00;;;;;;5045613;28;19961;-87
2024/02/23 17:24:13;;;;;;;;;;;8.20;1.00;;;;;;5053001;28;19964;-85
2024/02/23 17:26:40;;;;;;;;;;;8.10;1.00;;;;;;5057151;28;19983;-85
2024/02/23 17:29:07;;;;;;;;;;;8.10;1.00;;;;;;5054880;28;19959;-85
2024/02/23 17:31:35;;;;;;;;;;;8.10;1.00;;;;;;5058608;28;19950;-86
2024/02/23 17:34:02;;;;;;;;;;;8.00;1.00;;;;;;5050219;28;19925;-87
2024/02/23 17:36:29;;;;;;;;;;;8.00;1.00;;;;;;5046106;28;19962;-86
2024/02/23 17:38:56;;;;;;;;;;;8.00;1.00;;;;;;5046049;28;19991;-87
2024/02/23 17:41:22;;;;;;;;;;;8.00;1.00;;;;;;5046844;28;19943;-88
2024/02/23 17:43:49;;;;;;;;;;;7.90;1.00;;;;;;5046911;28;20478;-89
2024/02/23 17:46:16;;;;;;;;;;;7.90;1.00;;;;;;5046262;28;19939;-87
2024/02/23 17:48:44;;;;;;;;;;;8.00;1.00;;;;;;5046940;28;19925;-86
2024/02/23 17:51:10;;;;;;;;;;;7.90;1.00;;;;;;5048964;28;19921;-87
2024/02/23 17:53:37;;;;;;;;;;;7.90;1.00;;;;;;5048269;28;19960;-86
2024/02/23 17:56:04;;;;;;;;;;;7.90;1.00;;;;;;5048589;28;19928;-88
2024/02/23 17:58:35;;;;;;;;;;;7.90;1.00;;;;;;5053057;28;19950;-87
2024/02/23 18:01:02;;;;;;;;;;;7.90;1.00;;;;;;5059673;28;19905;-87
2024/02/23 18:03:28;;;;;;;;;;;7.80;1.00;;;;;;5056627;28;19955;-88
2024/02/23 18:05:57;;;;;;;;;;;7.80;1.00;;;;;;5046799;28;19940;-87
2024/02/23 18:08:23;;;;;;;;;;;7.80;1.00;;;;;;5047863;28;19972;-86
2024/02/23 18:10:50;;;;;;;;;;;7.80;1.00;;;;;;5047467;28;19996;-88
2024/02/23 18:13:17;;;;;;;;;;;7.80;1.00;;;;;;5044981;28;19921;-87
2024/02/23 18:15:44;;;;;;;;;;;7.70;1.00;;;;;;5054515;28;19965;-87
2024/02/23 18:18:11;;;;;;;;;;;7.70;1.00;;;;;;5044926;28;19953;-86
2024/02/23 18:20:38;;;;;;;;;;;7.70;1.00;;;;;;5045094;28;20462;-87
2024/02/23 18:23:06;;;;;;;;;;;7.70;1.00;;;;;;5045596;28;19940;-87
2024/02/23 18:25:32;;;;;;;;;;;7.70;1.00;;;;;;5049731;28;19959;-85
2024/02/23 18:28:00;;;;;;;;;;;7.70;1.00;;;;;;5060106;28;19947;-84
2024/02/23 18:30:27;;;;;;;;;;;7.70;1.00;;;;;;5059150;28;20031;-87
2024/02/23 18:32:54;;;;;;;;;;;7.60;1.00;;;;;;5058169;28;19931;-85
2024/02/23 18:35:20;;;;;;;;;;;7.70;1.00;;;;;;5058812;28;19955;-86
2024/02/23 18:37:47;;;;;;;;;;;7.50;1.00;;;;;;5055416;28;19933;-87
2024/02/23 18:40:15;;;;;;;;;;;7.50;1.00;;;;;;5046011;28;19986;-88
2024/02/23 18:42:42;;;;;;;;;;;7.50;1.00;;;;;;5045648;28;20030;-88
2024/02/23 18:45:08;;;;;;;;;;;7.40;1.00;;;;;;5043846;28;19963;-88
2024/02/23 18:47:35;;;;;;;;;;;7.40;1.00;;;;;;5044956;28;19974;-87
2024/02/23 18:50:02;;;;;;;;;;;7.40;1.00;;;;;;5044185;28;19958;-88
2024/02/23 18:52:29;;;;;;;;;;;7.30;1.00;;;;;;5046132;28;19921;-88